Wolflake, Indiana
Current Conditions -  °F | °C
As of 5:15 AM on Saturday 22 Nov 2014 (Local Time) from KASW Reporting Station
Light Rain Light Rain  
Wind Chill: 27°   Ceiling: 1600
Heat Index: 32°   Visibility: 4mi
Dew Point: 32°   Wind: 5mph
Humidity: 100%   Direction: 200°SSW
Pressure: 30.16"   Gusts: NA
Location:  41.34°N, 85.5°W
Report Text: KASW 221015Z AUTO 20004KT 4SM -RA OVC016 00/00 A3016 RMK AO2 P0002
Loading
Personal Weather Stations






























Interactive Weather Map New forecast layout! Learn more

10-Day Weather Forecast

Advertisements
Track Severe Weather on mobile